createdAt,value
2022-08-18T00:01:36.861Z,13.80
2022-08-18T00:04:27.819Z,13.80
2022-08-18T00:06:54.463Z,13.80
2022-08-18T00:09:21.967Z,13.80
2022-08-18T00:11:49.192Z,13.80
2022-08-18T00:14:22.173Z,13.70
2022-08-18T00:16:52.844Z,13.70
2022-08-18T00:19:20.808Z,13.70
2022-08-18T00:22:08.921Z,13.70
2022-08-18T00:24:48.477Z,13.80
2022-08-18T00:27:23.938Z,13.80
2022-08-18T00:29:58.499Z,13.80
2022-08-18T00:32:35.062Z,13.70
2022-08-18T00:35:21.831Z,13.70
2022-08-18T00:37:49.441Z,13.60
2022-08-18T00:40:22.735Z,13.60
2022-08-18T00:42:58.193Z,13.60
2022-08-18T00:45:33.065Z,13.60
2022-08-18T00:48:00.954Z,13.60
2022-08-18T00:50:34.826Z,13.60
2022-08-18T00:53:29.548Z,13.60
2022-08-18T00:56:03.283Z,13.60
2022-08-18T00:58:40.273Z,13.60
2022-08-18T01:01:09.845Z,13.60
2022-08-18T01:03:40.072Z,13.60
2022-08-18T01:06:23.835Z,13.60
2022-08-18T01:08:51.277Z,13.50
2022-08-18T01:11:18.445Z,13.50
2022-08-18T01:13:45.875Z,13.50
2022-08-18T01:16:32.264Z,13.50
2022-08-18T01:19:17.695Z,13.50
2022-08-18T01:21:51.212Z,13.50
2022-08-18T01:24:47.042Z,13.60
2022-08-18T01:27:18.403Z,13.60
2022-08-18T01:29:47.351Z,13.60
2022-08-18T01:32:23.377Z,13.60
2022-08-18T01:34:52.651Z,13.60
2022-08-18T01:37:23.362Z,13.50
2022-08-18T01:41:17.227Z,13.60
2022-08-18T01:42:39.888Z,13.60
2022-08-18T01:45:08.331Z,13.60
2022-08-18T01:47:47.595Z,13.60
2022-08-18T01:50:17.434Z,13.60
2022-08-18T01:52:44.711Z,13.60
2022-08-18T01:55:12.022Z,13.60
2022-08-18T01:57:45.403Z,13.60
2022-08-18T02:00:16.448Z,13.60
2022-08-18T02:02:44.034Z,13.60
2022-08-18T02:05:15.266Z,13.60
2022-08-18T02:07:42.695Z,13.60
2022-08-18T02:10:16.265Z,13.60
2022-08-18T02:12:44.671Z,13.60
2022-08-18T02:15:12.683Z,13.70
2022-08-18T02:17:42.118Z,13.70
2022-08-18T02:20:12.084Z,13.70
2022-08-18T02:22:39.665Z,13.70
2022-08-18T02:25:07.968Z,13.80
2022-08-18T02:27:35.348Z,13.80
2022-08-18T02:30:06.366Z,13.80
2022-08-18T02:32:34.043Z,13.80
2022-08-18T02:35:02.504Z,13.80
2022-08-18T02:37:33.799Z,13.80
2022-08-18T02:40:01.007Z,13.80
2022-08-18T02:42:29.395Z,13.80
2022-08-18T02:44:57.913Z,13.80
2022-08-18T02:47:28.156Z,13.80
2022-08-18T02:49:58.075Z,13.80
2022-08-18T02:52:32.798Z,13.80
2022-08-18T02:55:04.182Z,13.80
2022-08-18T02:57:32.225Z,13.70
2022-08-18T03:00:00.500Z,13.70
2022-08-18T03:02:28.235Z,13.70
2022-08-18T03:04:55.515Z,13.70
2022-08-18T03:07:22.973Z,13.70
2022-08-18T03:09:50.265Z,13.60
2022-08-18T03:12:18.034Z,13.60
2022-08-18T03:14:46.827Z,13.60
2022-08-18T03:17:15.147Z,13.60
2022-08-18T03:19:45.218Z,13.60
2022-08-18T03:22:28.231Z,13.60
2022-08-18T03:24:58.274Z,13.50
2022-08-18T03:27:26.725Z,13.50
2022-08-18T03:29:54.087Z,13.50
2022-08-18T03:32:21.410Z,13.60
2022-08-18T03:34:48.841Z,13.50
2022-08-18T03:37:16.279Z,13.60
2022-08-18T03:39:43.600Z,13.60
2022-08-18T03:42:11.009Z,13.60
2022-08-18T03:44:38.199Z,13.60
2022-08-18T03:47:12.057Z,13.60
2022-08-18T03:49:39.458Z,13.60
2022-08-18T03:52:10.005Z,13.70
2022-08-18T03:54:39.324Z,13.70
2022-08-18T03:57:11.161Z,13.70
2022-08-18T03:59:41.855Z,13.70
2022-08-18T04:02:09.599Z,13.70
2022-08-18T04:04:37.428Z,13.70
2022-08-18T04:07:14.427Z,13.70
2022-08-18T04:09:43.078Z,13.70
2022-08-18T04:12:16.561Z,13.80
2022-08-18T04:14:48.625Z,13.70
2022-08-18T04:17:25.201Z,13.70
2022-08-18T04:19:54.587Z,13.80
2022-08-18T04:22:22.840Z,13.80
2022-08-18T04:24:53.201Z,13.80
2022-08-18T04:27:22.254Z,13.80
2022-08-18T04:29:50.021Z,13.80
2022-08-18T04:32:17.724Z,13.80
2022-08-18T04:34:45.271Z,13.80
2022-08-18T04:37:13.565Z,13.90
2022-08-18T04:39:41.057Z,13.90
2022-08-18T04:42:08.667Z,13.90
2022-08-18T04:44:37.991Z,13.90
2022-08-18T04:47:09.197Z,13.90
2022-08-18T04:49:37.526Z,13.90
2022-08-18T04:52:39.346Z,13.90
2022-08-18T04:55:09.848Z,13.90
2022-08-18T04:57:37.134Z,13.90
2022-08-18T05:00:06.858Z,13.90
2022-08-18T05:02:35.147Z,13.90
2022-08-18T05:05:04.124Z,13.90
2022-08-18T05:07:31.968Z,13.90
2022-08-18T05:09:59.260Z,13.90
2022-08-18T05:12:27.099Z,14.00
2022-08-18T05:14:57.135Z,14.00
2022-08-18T05:17:30.166Z,14.00
2022-08-18T05:20:02.123Z,14.00
2022-08-18T05:22:31.729Z,14.00
2022-08-18T05:25:00.289Z,14.10
2022-08-18T05:27:33.197Z,14.10
2022-08-18T05:30:00.529Z,14.10
2022-08-18T05:32:47.332Z,14.10
2022-08-18T05:35:21.274Z,14.10
2022-08-18T05:38:04.661Z,14.10
2022-08-18T05:40:32.274Z,14.20
2022-08-18T05:43:00.501Z,14.10
2022-08-18T05:45:28.134Z,14.20
2022-08-18T05:48:00.278Z,14.20
2022-08-18T05:50:29.628Z,14.10
2022-08-18T05:53:14.100Z,14.20
2022-08-18T05:56:23.111Z,14.20
2022-08-18T05:58:53.101Z,14.20
2022-08-18T06:01:25.865Z,14.20
2022-08-18T06:04:00.257Z,14.20
2022-08-18T06:06:30.769Z,14.10
2022-08-18T06:09:22.543Z,14.20
2022-08-18T06:11:54.003Z,14.20
2022-08-18T06:14:21.303Z,14.20
2022-08-18T06:17:03.497Z,14.20
2022-08-18T06:19:55.769Z,14.20
2022-08-18T06:22:52.133Z,14.30
2022-08-18T06:26:05.410Z,14.30
2022-08-18T06:28:52.805Z,14.30
2022-08-18T06:31:43.042Z,14.30
2022-08-18T06:34:33.018Z,14.40
2022-08-18T06:37:17.661Z,14.40
2022-08-18T06:39:48.379Z,14.40
2022-08-18T06:42:30.537Z,14.50
2022-08-18T06:45:08.583Z,14.50
2022-08-18T06:48:20.968Z,14.50
2022-08-18T06:50:53.598Z,14.50
2022-08-18T06:53:27.325Z,14.50
2022-08-18T06:55:56.570Z,14.50
2022-08-18T06:58:30.722Z,14.50
2022-08-18T07:01:05.836Z,14.60
2022-08-18T07:03:39.447Z,14.60
2022-08-18T07:06:21.519Z,14.60
2022-08-18T07:08:54.959Z,14.60
2022-08-18T07:11:34.047Z,14.60
2022-08-18T07:14:22.562Z,14.60
2022-08-18T07:16:59.299Z,14.60
2022-08-18T07:19:31.460Z,14.60
2022-08-18T07:22:01.756Z,14.50
2022-08-18T07:24:33.528Z,14.60
2022-08-18T07:27:08.597Z,14.60
2022-08-18T07:29:41.801Z,14.60
2022-08-18T07:32:20.964Z,14.60
2022-08-18T07:34:58.250Z,14.60
2022-08-18T07:37:35.362Z,14.60
2022-08-18T07:40:35.228Z,14.60
2022-08-18T07:43:08.829Z,14.60
2022-08-18T07:45:47.447Z,14.60
2022-08-18T07:48:40.124Z,14.70
2022-08-18T07:51:19.905Z,14.60
2022-08-18T07:54:04.845Z,14.70
2022-08-18T07:56:48.524Z,14.70
2022-08-18T07:59:37.155Z,14.70
2022-08-18T08:02:27.711Z,14.60
2022-08-18T08:05:10.084Z,14.70
2022-08-18T08:07:55.680Z,14.70
2022-08-18T08:10:39.015Z,14.70
2022-08-18T08:13:53.543Z,14.70
2022-08-18T08:16:22.841Z,14.70
2022-08-18T08:19:00.269Z,14.70
2022-08-18T08:21:37.236Z,14.70
2022-08-18T08:24:08.396Z,14.80
2022-08-18T08:26:41.440Z,14.80
2022-08-18T08:29:08.733Z,14.80
2022-08-18T08:32:02.017Z,14.80
2022-08-18T08:34:41.734Z,14.80
2022-08-18T08:37:18.125Z,14.90
2022-08-18T08:39:57.965Z,14.90
2022-08-18T08:42:56.080Z,14.90
2022-08-18T08:45:29.372Z,14.90
2022-08-18T08:48:08.754Z,14.90
2022-08-18T08:50:45.598Z,15.00
2022-08-18T08:53:26.972Z,15.00
2022-08-18T08:56:02.477Z,15.10
2022-08-18T08:58:34.725Z,15.00
2022-08-18T09:01:03.024Z,15.00
2022-08-18T09:03:53.589Z,15.10
2022-08-18T09:06:35.947Z,15.10
2022-08-18T09:09:26.368Z,15.10
2022-08-18T09:12:31.195Z,15.20
2022-08-18T09:15:38.247Z,15.20
2022-08-18T09:18:25.672Z,15.20
2022-08-18T09:20:59.152Z,15.20
2022-08-18T09:23:35.482Z,15.30
2022-08-18T09:26:39.527Z,15.20
2022-08-18T09:29:17.814Z,15.30
2022-08-18T09:31:47.321Z,15.30
2022-08-18T09:34:34.478Z,15.30
2022-08-18T09:37:11.200Z,15.30
2022-08-18T09:43:31.998Z,15.40
2022-08-18T09:46:04.703Z,15.40
2022-08-18T09:50:37.216Z,15.40
2022-08-18T09:51:39.933Z,15.40
2022-08-18T09:54:13.869Z,15.50
2022-08-18T09:57:03.868Z,15.50
2022-08-18T09:59:38.159Z,15.50
2022-08-18T10:05:31.219Z,15.50
2022-08-18T10:08:21.622Z,15.60
2022-08-18T10:14:27.506Z,15.60
2022-08-18T10:17:30.740Z,15.70
2022-08-18T10:20:25.992Z,15.80
2022-08-18T10:22:57.434Z,15.80
2022-08-18T10:25:41.940Z,15.90
2022-08-18T10:28:50.349Z,15.90
2022-08-18T10:31:24.051Z,15.90
2022-08-18T10:34:19.459Z,16.00
2022-08-18T10:36:59.552Z,16.00
2022-08-18T10:42:33.907Z,16.20
2022-08-18T10:45:16.046Z,16.30
2022-08-18T10:48:16.666Z,16.40
2022-08-18T10:51:05.747Z,16.40
2022-08-18T10:56:40.870Z,16.50
2022-08-18T11:02:41.737Z,16.50
2022-08-18T11:05:12.243Z,16.50
2022-08-18T11:07:44.830Z,16.50
2022-08-18T11:10:32.376Z,16.50
2022-08-18T11:13:31.571Z,16.50
2022-08-18T11:16:14.125Z,16.50
2022-08-18T11:18:46.037Z,16.50
2022-08-18T11:24:32.794Z,16.40
2022-08-18T11:27:04.627Z,16.50
2022-08-18T11:29:43.245Z,16.40
2022-08-18T11:32:32.668Z,16.40
2022-08-18T11:35:11.233Z,16.40
2022-08-18T11:37:51.442Z,16.50
2022-08-18T11:43:41.727Z,16.50
2022-08-18T11:46:39.041Z,16.50
2022-08-18T11:49:24.343Z,16.50
2022-08-18T11:52:26.243Z,16.50
2022-08-18T11:55:23.869Z,16.50
2022-08-18T11:57:58.536Z,16.60
2022-08-18T12:00:42.404Z,16.60
2022-08-18T12:03:45.518Z,16.60
2022-08-18T12:06:21.746Z,16.60
2022-08-18T12:09:05.625Z,16.60
2022-08-18T12:11:37.143Z,16.50
2022-08-18T12:14:32.667Z,16.60
2022-08-18T12:17:03.043Z,16.60
2022-08-18T12:19:34.338Z,16.50
2022-08-18T12:22:13.800Z,16.50
2022-08-18T12:24:42.469Z,16.50
2022-08-18T12:27:20.885Z,16.40
2022-08-18T12:29:50.724Z,16.40
2022-08-18T12:32:47.115Z,16.40
2022-08-18T12:35:09.195Z,16.40
2022-08-18T12:40:26.418Z,16.30
2022-08-18T12:42:56.082Z,16.20
2022-08-18T12:45:25.944Z,16.20
2022-08-18T12:47:54.623Z,16.10
2022-08-18T12:50:31.802Z,16.10
2022-08-18T12:53:00.872Z,16.10
2022-08-18T12:55:31.867Z,16.20
2022-08-18T12:57:59.240Z,16.10
2022-08-18T13:03:14.801Z,16.20
2022-08-18T13:05:42.047Z,16.20
2022-08-18T13:08:30.428Z,16.20
2022-08-18T13:11:15.082Z,16.20
2022-08-18T13:13:52.753Z,16.30
2022-08-18T13:16:30.521Z,16.30
2022-08-18T13:18:58.603Z,16.30
2022-08-18T13:21:26.828Z,16.30
2022-08-18T13:24:06.843Z,16.30
2022-08-18T13:26:41.613Z,16.40
2022-08-18T13:29:10.441Z,16.50
2022-08-18T13:31:39.013Z,16.50
2022-08-18T13:34:11.801Z,16.50
2022-08-18T13:36:46.136Z,16.60
2022-08-18T13:39:19.205Z,16.70
2022-08-18T13:41:48.869Z,16.70
2022-08-18T13:44:19.702Z,16.80
2022-08-18T13:46:48.735Z,16.80
2022-08-18T13:49:18.548Z,16.90
2022-08-18T13:51:55.522Z,16.90
2022-08-18T13:54:31.214Z,16.90
2022-08-18T13:57:00.247Z,16.90
2022-08-18T13:59:31.812Z,16.80
2022-08-18T14:02:02.449Z,16.80
2022-08-18T14:04:30.212Z,16.80
2022-08-18T14:06:59.965Z,16.80
2022-08-18T14:09:36.528Z,16.80
2022-08-18T14:12:27.010Z,16.80
2022-08-18T14:14:57.540Z,16.90
2022-08-18T14:17:26.459Z,16.90
2022-08-18T14:20:15.545Z,17.00
2022-08-18T14:23:10.414Z,17.00
2022-08-18T14:25:56.640Z,17.10
2022-08-18T14:28:28.452Z,17.20
2022-08-18T14:31:00.820Z,17.20
2022-08-18T14:33:49.377Z,17.30
2022-08-18T14:36:18.305Z,17.40
2022-08-18T14:38:45.585Z,17.60
2022-08-18T14:41:14.891Z,17.70
2022-08-18T14:43:53.891Z,17.70
2022-08-18T14:46:33.287Z,17.70
2022-08-18T14:49:03.931Z,17.70
2022-08-18T14:51:33.608Z,17.70
2022-08-18T14:54:02.432Z,17.70
2022-08-18T14:56:33.326Z,17.70
2022-08-18T14:59:01.111Z,17.60
2022-08-18T15:01:34.708Z,17.50
2022-08-18T15:04:18.764Z,17.50
2022-08-18T15:06:56.102Z,17.50
2022-08-18T15:09:30.190Z,17.50
2022-08-18T15:11:59.306Z,17.50
2022-08-18T15:14:33.082Z,17.50
2022-08-18T15:17:11.624Z,17.50
2022-08-18T15:19:59.193Z,17.60
2022-08-18T15:22:47.795Z,17.60
2022-08-18T15:25:34.327Z,17.70
2022-08-18T15:28:02.200Z,17.80
2022-08-18T15:30:29.679Z,17.90
2022-08-18T15:32:57.894Z,18.00
2022-08-18T15:35:25.844Z,18.00
2022-08-18T15:37:54.964Z,18.10
2022-08-18T15:40:30.784Z,18.10
2022-08-18T15:43:03.730Z,18.10
2022-08-18T15:45:37.849Z,18.10
2022-08-18T15:48:12.565Z,18.10
2022-08-18T15:50:40.447Z,18.10
2022-08-18T15:53:12.203Z,18.10
2022-08-18T15:55:41.686Z,18.10
2022-08-18T15:58:12.878Z,18.10
2022-08-18T16:00:43.699Z,18.20
2022-08-18T16:03:14.560Z,18.30
2022-08-18T16:05:52.514Z,18.20
2022-08-18T16:08:23.648Z,18.30
2022-08-18T16:10:52.654Z,18.40
2022-08-18T16:13:20.075Z,18.40
2022-08-18T16:15:50.080Z,18.50
2022-08-18T16:18:21.181Z,18.50
2022-08-18T16:20:50.663Z,18.60
2022-08-18T16:23:20.423Z,18.60
2022-08-18T16:25:47.571Z,18.60
2022-08-18T16:28:14.896Z,18.60
2022-08-18T16:30:42.533Z,18.60
2022-08-18T16:33:09.834Z,18.60
2022-08-18T16:35:37.618Z,18.50
2022-08-18T16:38:09.680Z,18.50
2022-08-18T16:40:38.057Z,18.50
2022-08-18T16:43:06.030Z,18.40
2022-08-18T16:45:36.096Z,18.30
2022-08-18T16:48:04.036Z,18.30
2022-08-18T16:50:31.361Z,18.30
2022-08-18T16:52:58.648Z,18.40
2022-08-18T16:55:25.984Z,18.40
2022-08-18T16:58:15.502Z,18.50
2022-08-18T17:01:01.976Z,18.60
2022-08-18T17:03:48.029Z,18.60
2022-08-18T17:06:18.704Z,18.70
2022-08-18T17:08:46.318Z,18.60
2022-08-18T17:11:17.057Z,18.70
2022-08-18T17:13:45.598Z,18.60
2022-08-18T17:16:12.984Z,18.60
2022-08-18T17:18:41.115Z,18.60
2022-08-18T17:21:11.014Z,18.60
2022-08-18T17:23:39.264Z,18.50
2022-08-18T17:26:17.766Z,18.50
2022-08-18T17:28:53.842Z,18.40
2022-08-18T17:31:24.676Z,18.40
2022-08-18T17:33:55.479Z,18.40
2022-08-18T17:36:31.112Z,18.40
2022-08-18T17:39:01.730Z,18.40
2022-08-18T17:41:29.265Z,18.40
2022-08-18T17:44:00.908Z,18.40
2022-08-18T17:46:38.412Z,18.30
2022-08-18T17:49:13.151Z,18.20
2022-08-18T17:51:52.638Z,18.10
2022-08-18T17:54:39.313Z,18.10
2022-08-18T17:57:29.965Z,18.10
2022-08-18T18:00:11.289Z,18.10
2022-08-18T18:02:45.269Z,18.10
2022-08-18T18:05:16.011Z,18.10
2022-08-18T18:07:52.352Z,18.10
2022-08-18T18:11:02.254Z,18.10
2022-08-18T18:13:32.687Z,18.10
2022-08-18T18:16:37.175Z,18.00
2022-08-18T18:19:12.665Z,18.00
2022-08-18T18:22:00.813Z,17.90
2022-08-18T18:24:37.404Z,17.90
2022-08-18T18:27:23.530Z,17.90
2022-08-18T18:30:16.906Z,17.90
2022-08-18T18:33:02.854Z,17.90
2022-08-18T18:35:53.463Z,17.90
2022-08-18T18:38:37.960Z,17.90
2022-08-18T18:41:18.255Z,17.90
2022-08-18T18:43:47.596Z,17.90
2022-08-18T18:46:23.348Z,17.90
2022-08-18T18:48:59.471Z,17.90
2022-08-18T18:51:39.119Z,17.90
2022-08-18T18:54:49.596Z,17.90
2022-08-18T18:57:32.306Z,17.90
2022-08-18T19:00:33.353Z,17.90
2022-08-18T19:03:18.148Z,17.90
2022-08-18T19:06:07.485Z,17.90
2022-08-18T19:09:12.759Z,17.90
2022-08-18T19:12:12.385Z,17.90
2022-08-18T19:14:59.708Z,17.90
2022-08-18T19:17:42.591Z,17.90
2022-08-18T19:20:19.294Z,17.80
2022-08-18T19:23:34.006Z,17.80
2022-08-18T19:26:17.507Z,17.80
2022-08-18T19:29:01.226Z,17.80
2022-08-18T19:31:48.161Z,17.80
2022-08-18T19:34:30.201Z,17.70
2022-08-18T19:37:36.506Z,17.70
2022-08-18T19:40:27.473Z,17.70
2022-08-18T19:43:12.874Z,17.60
2022-08-18T19:45:50.296Z,17.50
2022-08-18T19:49:08.953Z,17.50
2022-08-18T19:51:40.134Z,17.50
2022-08-18T19:54:25.311Z,17.40
2022-08-18T19:57:09.553Z,17.40
2022-08-18T20:00:05.033Z,17.40
2022-08-18T20:02:49.143Z,17.40
2022-08-18T20:05:25.811Z,17.30
2022-08-18T20:08:05.516Z,17.30
2022-08-18T20:10:38.650Z,17.20
2022-08-18T20:13:24.195Z,17.20
2022-08-18T20:16:10.642Z,17.10
2022-08-18T20:18:49.935Z,17.10
2022-08-18T20:21:17.439Z,17.10
2022-08-18T20:23:56.978Z,17.10
2022-08-18T20:26:40.187Z,17.10
2022-08-18T20:29:30.498Z,17.00
2022-08-18T20:32:04.891Z,17.00
2022-08-18T20:34:35.269Z,16.90
2022-08-18T20:37:10.751Z,16.90
2022-08-18T20:39:46.543Z,16.90
2022-08-18T20:42:23.148Z,16.90
2022-08-18T20:44:54.593Z,16.90
2022-08-18T20:47:42.123Z,16.90
2022-08-18T20:50:44.819Z,16.90
2022-08-18T20:53:41.303Z,16.90
2022-08-18T20:56:46.466Z,16.90
2022-08-18T20:59:29.442Z,16.90
2022-08-18T21:02:03.962Z,16.90
2022-08-18T21:04:54.244Z,16.90
2022-08-18T21:07:38.154Z,16.90
2022-08-18T21:10:24.455Z,16.90
2022-08-18T21:12:54.926Z,16.90
2022-08-18T21:15:26.427Z,16.90
2022-08-18T21:18:21.068Z,16.80
2022-08-18T21:20:50.409Z,16.80
2022-08-18T21:23:25.352Z,16.70
2022-08-18T21:25:57.175Z,16.60
2022-08-18T21:28:28.064Z,16.60
2022-08-18T21:31:42.634Z,16.60
2022-08-18T21:33:58.960Z,16.50
2022-08-18T21:36:32.129Z,16.50
2022-08-18T21:39:07.716Z,16.40
2022-08-18T21:41:48.495Z,16.40
2022-08-18T21:44:20.845Z,16.30
2022-08-18T21:46:48.741Z,16.30
2022-08-18T21:49:28.218Z,16.30
2022-08-18T21:51:55.704Z,16.20
2022-08-18T21:54:28.647Z,16.20
2022-08-18T21:57:22.473Z,16.20
2022-08-18T22:00:20.381Z,16.20
2022-08-18T22:02:51.416Z,16.10
2022-08-18T22:05:55.845Z,16.10
2022-08-18T22:08:23.228Z,16.10
2022-08-18T22:11:43.551Z,16.10
2022-08-18T22:14:54.514Z,16.20
2022-08-18T22:17:43.232Z,16.10
2022-08-18T22:20:33.397Z,16.10
2022-08-18T22:23:31.837Z,16.10
2022-08-18T22:26:24.233Z,16.10
2022-08-18T22:29:06.692Z,16.10
2022-08-18T22:31:44.554Z,16.20
2022-08-18T22:34:27.449Z,16.10
2022-08-18T22:37:19.250Z,16.20
2022-08-18T22:39:51.552Z,16.20
2022-08-18T22:42:21.131Z,16.20
2022-08-18T22:44:49.061Z,16.20
2022-08-18T22:47:16.752Z,16.10
2022-08-18T22:49:45.359Z,16.10
2022-08-18T22:52:29.617Z,16.10
2022-08-18T22:55:03.294Z,16.00
2022-08-18T22:57:38.577Z,16.00
2022-08-18T23:00:15.273Z,15.90
2022-08-18T23:02:43.172Z,15.90
2022-08-18T23:05:11.246Z,15.90
2022-08-18T23:07:38.744Z,15.80
2022-08-18T23:10:13.765Z,15.70
2022-08-18T23:12:43.276Z,15.70
2022-08-18T23:15:11.853Z,15.60
2022-08-18T23:17:40.928Z,15.60
2022-08-18T23:20:12.296Z,15.50
2022-08-18T23:22:45.775Z,15.50
2022-08-18T23:25:13.606Z,15.40
2022-08-18T23:27:43.157Z,15.40
2022-08-18T23:30:14.331Z,15.40
2022-08-18T23:32:41.616Z,15.30
2022-08-18T23:35:08.891Z,15.30
2022-08-18T23:37:36.089Z,15.30
2022-08-18T23:40:03.931Z,15.30
2022-08-18T23:42:31.668Z,15.20
2022-08-18T23:45:03.170Z,15.20
2022-08-18T23:47:30.630Z,15.10
2022-08-18T23:49:57.951Z,15.10
2022-08-18T23:52:25.211Z,15.00
2022-08-18T23:54:52.638Z,14.90
2022-08-18T23:57:19.867Z,14.90
2022-08-18T23:59:47.175Z,14.80
